Time;durP1;ratioP1;P1;durP2;ratioP2;P2;SDS_P1;SDS_P2;PMS_P1;PMS_P2;Temp;Humidity;BMP_temperature;BMP_pressure;BME280_temperature;BME280_humidity;BME280_pressure;Samples;Min_cycle;Max_cycle;Signal;HPM_P1;HPM_P2
2023/04/18 00:00:51;;;;;;;20.67;13.43;;;;;;;8.51;81.19;102460.63;5051410;28;20439;-64
2023/04/18 00:03:16;;;;;;;22.10;13.45;;;;;;;8.48;81.17;102465.19;5054229;28;20037;-65
2023/04/18 00:05:46;;;;;;;18.83;13.40;;;;;;;8.42;81.01;102456.81;5054073;28;20167;-64
2023/04/18 00:08:13;;;;;;;19.65;13.50;;;;;;;8.38;81.47;102455.38;5052452;28;20541;-64
2023/04/18 00:10:38;;;;;;;20.08;13.38;;;;;;;8.37;81.40;102462.44;5051421;28;20504;-65
2023/04/18 00:13:04;;;;;;;19.95;13.52;;;;;;;8.33;81.43;102455.66;5051643;28;20044;-65
2023/04/18 00:15:30;;;;;;;19.92;13.70;;;;;;;8.38;81.28;102461.47;5051885;28;20043;-65
2023/04/18 00:17:55;;;;;;;22.63;13.70;;;;;;;8.27;81.68;102458.72;5053973;28;20037;-65
2023/04/18 00:20:24;;;;;;;22.42;13.82;;;;;;;8.14;82.14;102454.28;5050485;28;20480;-64
2023/04/18 00:22:51;;;;;;;19.60;14.02;;;;;;;8.16;82.18;102462.97;5053868;28;20036;-65
2023/04/18 00:25:17;;;;;;;21.23;14.30;;;;;;;8.05;82.78;102455.78;5050722;28;20057;-64
2023/04/18 00:27:42;;;;;;;22.63;14.35;;;;;;;8.12;82.26;102450.91;5053581;28;20502;-64
2023/04/18 00:30:08;;;;;;;22.42;14.38;;;;;;;8.13;82.33;102452.59;5049656;28;20370;-65
2023/04/18 00:32:33;;;;;;;21.27;14.25;;;;;;;8.06;82.28;102456.63;5053253;28;20029;-65
2023/04/18 00:34:59;;;;;;;23.30;14.02;;;;;;;8.08;82.52;102450.28;5054061;28;20032;-64
2023/04/18 00:37:24;;;;;;;20.23;13.85;;;;;;;8.10;82.60;102452.84;5054179;28;20055;-64
2023/04/18 00:39:52;;;;;;;21.15;14.32;;;;;;;8.07;82.74;102453.88;5051321;28;20114;-64
2023/04/18 00:42:18;;;;;;;20.38;14.43;;;;;;;8.05;83.06;102454.94;5054611;28;20632;-65
2023/04/18 00:44:43;;;;;;;21.42;13.88;;;;;;;7.98;83.31;102443.09;5051484;28;20025;-64
2023/04/18 00:47:08;;;;;;;21.83;14.15;;;;;;;8.04;82.99;102453.25;5053178;28;20044;-65
2023/04/18 00:49:34;;;;;;;23.15;14.32;;;;;;;7.93;83.35;102446.91;5052765;28;20167;-65
2023/04/18 00:51:59;;;;;;;20.10;14.40;;;;;;;7.92;82.67;102445.22;5050434;28;20037;-65
2023/04/18 00:54:26;;;;;;;20.95;14.13;;;;;;;7.88;82.47;102454.28;5052774;28;20093;-64
2023/04/18 00:56:51;;;;;;;21.63;14.00;;;;;;;7.90;81.24;102447.09;5053703;28;20033;-64
2023/04/18 00:59:17;;;;;;;21.52;13.32;;;;;;;7.87;80.10;102452.59;5051023;28;20059;-64
2023/04/18 01:01:43;;;;;;;22.27;13.88;;;;;;;7.85;80.37;102448.38;5050412;28;20060;-64
2023/04/18 01:04:09;;;;;;;21.02;13.55;;;;;;;7.75;79.97;102445.50;5051182;28;20159;-65
2023/04/18 01:06:35;;;;;;;19.95;13.32;;;;;;;7.75;78.75;102448.97;5052188;28;20479;-64
2023/04/18 01:09:01;;;;;;;19.20;13.43;;;;;;;7.82;77.32;102446.78;5052821;28;20036;-65
2023/04/18 01:11:26;;;;;;;19.88;13.70;;;;;;;7.79;76.48;102454.88;5048475;28;20037;-64
2023/04/18 01:14:02;;;;;;;17.63;12.82;;;;;;;7.80;76.78;102453.97;5045781;28;20037;-64
2023/04/18 01:16:28;;;;;;;20.98;13.20;;;;;;;7.75;75.68;102443.69;5050381;28;20033;-65
2023/04/18 01:18:55;;;;;;;21.92;13.13;;;;;;;7.74;74.83;102446.47;5052136;28;20025;-64
2023/04/18 01:21:21;;;;;;;23.40;12.68;;;;;;;7.70;75.20;102450.25;5051576;28;20380;-64
2023/04/18 01:23:47;;;;;;;20.83;13.25;;;;;;;7.69;74.78;102441.47;5050941;28;20037;-64
2023/04/18 01:26:13;;;;;;;19.13;12.88;;;;;;;7.70;74.44;102450.25;5049646;28;20051;-64
2023/04/18 01:28:38;;;;;;;19.35;12.85;;;;;;;7.64;74.17;102441.78;5050538;28;20480;-64
2023/04/18 01:31:04;;;;;;;18.17;13.07;;;;;;;7.59;74.91;102449.16;5052006;28;20035;-65
2023/04/18 01:33:29;;;;;;;19.98;12.55;;;;;;;7.57;74.94;102440.50;5051589;28;20041;-64
2023/04/18 01:35:54;;;;;;;17.55;12.40;;;;;;;7.51;75.29;102433.00;5046772;28;20028;-64
2023/04/18 01:38:20;;;;;;;20.13;12.60;;;;;;;7.50;75.31;102433.94;5052778;28;20469;-64
2023/04/18 01:40:46;;;;;;;19.92;12.98;;;;;;;7.46;75.99;102437.72;5050821;28;20025;-65
2023/04/18 01:43:11;;;;;;;17.30;12.43;;;;;;;7.45;75.60;102430.75;5052293;28;20025;-64
2023/04/18 01:45:36;;;;;;;19.88;12.88;;;;;;;7.44;75.93;102434.34;5046697;28;20036;-64
2023/04/18 01:48:02;;;;;;;20.33;13.15;;;;;;;7.37;75.89;102428.63;5046512;28;20077;-64
2023/04/18 01:50:27;;;;;;;21.63;13.23;;;;;;;7.32;76.87;102428.94;5050180;28;20045;-64
2023/04/18 01:52:52;;;;;;;21.23;13.18;;;;;;;7.33;77.20;102421.84;5052901;28;20072;-64
2023/04/18 01:55:18;;;;;;;19.77;13.30;;;;;;;7.25;76.14;102424.97;5049497;28;20033;-64
2023/04/18 01:57:43;;;;;;;23.33;13.70;;;;;;;7.11;77.52;102423.25;5047457;28;20067;-64
2023/04/18 02:00:09;;;;;;;20.70;13.77;;;;;;;7.09;77.15;102425.13;5048900;28;20086;-64
2023/04/18 02:02:35;;;;;;;21.05;13.35;;;;;;;7.05;77.73;102424.47;5046230;28;20025;-64
2023/04/18 02:05:00;;;;;;;20.88;13.82;;;;;;;7.02;77.62;102429.97;5050634;28;20036;-65
2023/04/18 02:07:25;;;;;;;22.60;13.15;;;;;;;7.02;76.61;102424.69;5050982;28;20037;-64
2023/04/18 02:09:51;;;;;;;21.10;13.40;;;;;;;7.00;76.88;102423.94;5050998;28;20476;-64
2023/04/18 02:12:16;;;;;;;20.48;13.15;;;;;;;6.98;76.83;102428.47;5045359;28;20048;-64
2023/04/18 02:14:41;;;;;;;19.30;12.77;;;;;;;6.93;76.28;102415.59;5048556;28;20070;-64
2023/04/18 02:17:06;;;;;;;20.70;13.77;;;;;;;6.86;76.18;102428.31;5052768;28;20396;-64
2023/04/18 02:19:32;;;;;;;20.30;12.95;;;;;;;6.84;77.01;102422.28;5050321;28;20146;-64
2023/04/18 02:21:57;;;;;;;21.80;12.73;;;;;;;6.84;76.40;102419.66;5051432;28;20029;-64
2023/04/18 02:24:23;;;;;;;21.15;13.32;;;;;;;6.85;76.73;102418.72;5049778;28;20029;-64
2023/04/18 02:26:48;;;;;;;18.90;13.25;;;;;;;6.84;75.95;102419.66;5038641;28;20079;-64
2023/04/18 02:29:13;;;;;;;20.17;12.95;;;;;;;6.74;76.65;102415.91;5049810;28;20473;-64
2023/04/18 02:31:39;;;;;;;20.92;13.27;;;;;;;6.64;77.20;102414.78;5050767;28;20052;-64
2023/04/18 02:34:05;;;;;;;19.90;13.15;;;;;;;6.70;76.70;102414.41;5050975;28;20446;-65
2023/04/18 02:36:30;;;;;;;20.40;13.15;;;;;;;6.66;77.26;102416.38;5050999;28;20036;-64
2023/04/18 02:38:56;;;;;;;20.48;13.38;;;;;;;6.57;77.49;102409.91;5049764;28;20044;-65
2023/04/18 02:41:21;;;;;;;21.27;13.80;;;;;;;6.52;78.13;102419.03;5050063;28;20115;-64
2023/04/18 02:43:46;;;;;;;21.35;13.82;;;;;;;6.57;76.55;102415.16;5051495;28;20502;-64
2023/04/18 02:46:12;;;;;;;23.02;13.95;;;;;;;6.48;78.08;102409.63;5052174;28;20431;-65
2023/04/18 02:48:37;;;;;;;21.13;13.82;;;;;;;6.47;77.55;102408.81;5043829;28;20080;-64
2023/04/18 02:51:07;;;;;;;22.83;13.85;;;;;;;6.40;77.39;102408.31;5043472;28;20029;-64
2023/04/18 02:53:33;;;;;;;22.20;13.40;;;;;;;6.47;77.30;102419.34;5047669;28;20029;-64
2023/04/18 02:55:59;;;;;;;20.88;13.57;;;;;;;6.30;78.08;102407.19;5051383;28;20464;-64
2023/04/18 02:58:25;;;;;;;19.40;13.07;;;;;;;6.27;78.62;102410.84;5050579;28;20037;-64
2023/04/18 03:00:54;;;;;;;20.08;13.73;;;;;;;6.25;78.86;102403.97;5050794;28;20029;-64
2023/04/18 03:03:20;;;;;;;20.45;13.52;;;;;;;6.17;78.91;102405.31;5042209;28;20589;-64
2023/04/18 03:05:45;;;;;;;22.45;14.02;;;;;;;6.17;79.43;102402.66;5051290;28;20037;-64
2023/04/18 03:08:11;;;;;;;19.98;13.30;;;;;;;6.17;78.67;102409.75;5048171;28;20100;-64
2023/04/18 03:10:36;;;;;;;21.27;13.68;;;;;;;6.16;77.93;102406.25;5046455;28;20033;-64
2023/04/18 03:13:01;;;;;;;20.77;13.57;;;;;;;6.16;78.11;102405.41;5043156;28;20529;-64
2023/04/18 03:15:27;;;;;;;21.45;12.80;;;;;;;6.09;78.44;102404.09;5051285;28;20509;-64
2023/04/18 03:17:52;;;;;;;21.65;13.40;;;;;;;6.05;77.55;102408.69;5037096;28;20473;-64
2023/04/18 03:20:18;;;;;;;22.77;13.57;;;;;;;6.00;78.47;102406.31;5048220;28;20607;-64
2023/04/18 03:22:43;;;;;;;21.35;13.70;;;;;;;6.05;79.04;102408.69;5050021;28;20039;-64
2023/04/18 03:25:09;;;;;;;19.08;13.07;;;;;;;6.04;78.91;102413.13;5045799;28;20041;-64
2023/04/18 03:27:34;;;;;;;21.08;13.75;;;;;;;6.04;78.85;102410.50;5048717;28;20025;-64
2023/04/18 03:30:00;;;;;;;22.60;13.85;;;;;;;6.00;78.64;102406.31;5050607;28;20416;-64
2023/04/18 03:32:25;;;;;;;20.33;13.80;;;;;;;5.99;77.27;102406.41;5051674;28;20033;-64
2023/04/18 03:34:51;;;;;;;20.35;13.63;;;;;;;5.96;78.04;102412.69;5049507;28;20025;-64
2023/04/18 03:37:16;;;;;;;21.15;14.15;;;;;;;5.96;78.11;102410.06;5050659;28;20067;-64
2023/04/18 03:39:41;;;;;;;20.60;13.38;;;;;;;5.93;78.69;102416.34;5043911;28;20104;-65
2023/04/18 03:42:07;;;;;;;20.10;13.95;;;;;;;5.85;77.47;102417.75;5049819;28;20058;-64
2023/04/18 03:44:32;;;;;;;18.38;13.27;;;;;;;5.85;78.12;102415.97;5050429;28;20138;-64
2023/04/18 03:46:57;;;;;;;22.55;13.68;;;;;;;5.83;78.76;102419.63;5048873;28;20049;-64
2023/04/18 03:49:23;;;;;;;24.95;13.60;;;;;;;5.81;78.59;102405.72;5050650;28;20057;-64
2023/04/18 03:51:48;;;;;;;20.67;13.32;;;;;;;5.81;78.83;102413.63;5051006;28;20040;-64
2023/04/18 03:54:15;;;;;;;19.70;13.15;;;;;;;5.70;78.47;102409.84;5050737;28;20029;-64
2023/04/18 03:56:40;;;;;;;19.45;13.35;;;;;;;5.66;78.61;102413.56;5050360;28;20025;-65
2023/04/18 03:59:05;;;;;;;21.42;13.80;;;;;;;5.61;78.23;102423.53;5050639;28;20504;-65
2023/04/18 04:01:31;;;;;;;19.63;12.90;;;;;;;5.48;78.95;102418.13;5043601;28;20021;-65
2023/04/18 04:03:56;;;;;;;20.98;13.77;;;;;;;5.46;78.92;102420.84;5045433;28;20098;-65
2023/04/18 04:06:22;;;;;;;19.65;13.40;;;;;;;5.46;79.90;102418.22;5050900;28;20036;-65
2023/04/18 04:08:47;;;;;;;19.20;13.25;;;;;;;5.50;79.16;102425.00;5044720;28;20041;-65
2023/04/18 04:11:12;;;;;;;20.42;13.32;;;;;;;5.50;78.82;102419.75;5048643;28;20040;-65
2023/04/18 04:13:38;;;;;;;20.33;13.48;;;;;;;5.47;79.38;102419.91;5044265;28;20119;-65
2023/04/18 04:16:03;;;;;;;20.08;13.02;;;;;;;5.39;78.96;102414.25;5050985;28;20032;-65
2023/04/18 04:18:30;;;;;;;19.83;13.73;;;;;;;5.32;79.89;102412.91;5050521;28;20566;-65
2023/04/18 04:20:59;;;;;;;22.73;12.82;;;;;;;5.38;78.99;102415.19;5049560;28;20053;-65
2023/04/18 04:23:25;;;;;;;18.80;13.20;;;;;;;5.34;79.37;102414.50;5047540;28;20032;-65
2023/04/18 04:25:54;;;;;;;19.35;12.73;;;;;;;5.29;79.60;102418.34;5050593;28;20025;-65
2023/04/18 04:28:21;;;;;;;20.45;13.32;;;;;;;5.29;79.07;102426.22;5049813;28;20052;-65
2023/04/18 04:30:49;;;;;;;20.77;13.73;;;;;;;5.28;79.92;102435.06;5044459;28;20377;-65
2023/04/18 04:33:14;;;;;;;19.33;13.30;;;;;;;5.23;80.43;102427.44;5049635;28;20033;-65
2023/04/18 04:35:40;;;;;;;18.02;12.95;;;;;;;5.20;79.92;102428.47;5051963;28;20025;-65
2023/04/18 04:38:06;;;;;;;22.13;13.07;;;;;;;5.24;79.89;102429.97;5052348;28;20108;-65
2023/04/18 04:40:31;;;;;;;23.00;14.13;;;;;;;5.20;80.52;102433.72;5048840;28;20112;-65
2023/04/18 04:42:57;;;;;;;21.52;13.68;;;;;;;5.16;80.06;102429.56;5050754;28;20053;-65
2023/04/18 04:45:22;;;;;;;19.17;13.35;;;;;;;5.20;80.44;102428.47;5045409;28;20040;-65
2023/04/18 04:47:48;;;;;;;21.20;13.27;;;;;;;5.21;80.81;102424.91;5043762;28;20053;-65
2023/04/18 04:50:14;;;;;;;20.15;13.73;;;;;;;5.23;81.08;102436.16;5052306;28;20032;-65
2023/04/18 04:52:41;;;;;;;22.30;13.82;;;;;;;5.24;80.43;102431.75;5053350;28;20033;-65
2023/04/18 04:55:06;;;;;;;18.98;13.30;;;;;;;5.18;80.42;102429.47;5043927;28;20380;-65
2023/04/18 04:57:31;;;;;;;18.60;12.98;;;;;;;5.18;79.47;102437.38;5046792;28;20032;-65
2023/04/18 04:59:57;;;;;;;19.58;13.10;;;;;;;5.16;80.70;102437.44;5048767;28;20028;-65
2023/04/18 05:02:22;;;;;;;20.65;13.95;;;;;;;5.13;80.37;102432.34;5049498;28;20025;-65
2023/04/18 05:04:48;;;;;;;19.48;13.20;;;;;;;5.05;79.97;102435.44;5051040;28;20419;-65
2023/04/18 05:07:13;;;;;;;20.50;13.15;;;;;;;5.01;80.49;102438.28;5053397;28;20025;-72
2023/04/18 05:09:39;;;;;;;24.15;13.43;;;;;;;5.04;80.68;102444.22;5048865;28;20041;-63
2023/04/18 05:12:04;;;;;;;20.65;13.00;;;;;;;5.06;80.34;102436.25;5045269;28;20468;-65
2023/04/18 05:14:29;;;;;;;20.67;13.20;;;;;;;5.02;79.97;102434.75;5048188;28;20040;-64
2023/04/18 05:16:55;;;;;;;23.08;13.25;;;;;;;5.00;81.17;102442.72;5048741;28;20041;-64
2023/04/18 05:19:20;;;;;;;23.27;13.90;;;;;;;5.02;81.00;102440.84;5050136;28;20029;-64
2023/04/18 05:21:46;;;;;;;20.65;13.57;;;;;;;5.07;80.40;102443.22;5049686;28;20057;-65
2023/04/18 05:24:11;;;;;;;22.35;13.05;;;;;;;5.05;80.62;102438.06;5049708;28;20477;-65
2023/04/18 05:26:37;;;;;;;22.80;13.50;;;;;;;5.01;81.26;102444.41;5046198;28;20484;-64
2023/04/18 05:29:02;;;;;;;19.42;13.40;;;;;;;5.05;80.68;102447.72;5045335;28;20034;-64
2023/04/18 05:31:28;;;;;;;22.52;13.20;;;;;;;5.07;80.84;102443.22;5044647;28;20037;-65
2023/04/18 05:33:53;;;;;;;19.73;12.70;;;;;;;5.07;80.75;102443.22;5044774;28;20059;-64
2023/04/18 05:36:19;;;;;;;19.55;13.02;;;;;;;5.07;80.05;102443.22;5043866;28;20483;-64
2023/04/18 05:38:44;;;;;;;21.10;13.00;;;;;;;5.10;80.15;102448.31;5044648;28;20063;-64
2023/04/18 05:41:09;;;;;;;19.23;13.13;;;;;;;5.10;81.08;102454.41;5047070;28;20036;-65
2023/04/18 05:43:35;;;;;;;19.42;12.57;;;;;;;5.16;80.17;102458.50;5045097;28;20693;-64
2023/04/18 05:46:00;;;;;;;18.80;12.50;;;;;;;5.16;80.69;102458.50;5043759;28;20032;-64
2023/04/18 05:48:26;;;;;;;21.02;12.80;;;;;;;5.27;80.21;102457.06;5047891;28;20063;-64
2023/04/18 05:50:51;;;;;;;20.05;12.77;;;;;;;5.31;80.24;102463.81;5046115;28;20025;-65
2023/04/18 05:53:16;;;;;;;20.02;12.80;;;;;;;5.35;81.16;102462.72;5045190;28;20879;-65
2023/04/18 05:55:42;;;;;;;19.35;12.68;;;;;;;5.41;80.48;102462.38;5041469;28;20037;-65
2023/04/18 05:58:07;;;;;;;19.73;12.82;;;;;;;5.50;80.01;102472.38;5042465;28;20017;-65
2023/04/18 06:00:33;;;;;;;19.23;12.88;;;;;;;5.58;79.92;102473.72;5044627;28;20039;-65
2023/04/18 06:02:58;;;;;;;18.10;12.70;;;;;;;5.63;80.20;102471.66;5039735;28;20033;-62
2023/04/18 06:05:24;;;;;;;19.08;12.32;;;;;;;5.60;80.42;102483.22;5043348;28;20476;-64
2023/04/18 06:07:49;;;;;;;19.70;13.32;;;;;;;5.68;80.19;102469.63;5047335;28;20048;-63
2023/04/18 06:10:15;;;;;;;18.25;12.40;;;;;;;5.73;80.73;102467.53;5042836;28;20120;-63
2023/04/18 06:12:41;;;;;;;19.33;12.63;;;;;;;5.82;79.41;102470.59;5043323;28;20043;-63
2023/04/18 06:15:06;;;;;;;22.63;12.95;;;;;;;5.81;79.82;102474.19;5041782;28;20030;-63
2023/04/18 06:17:33;;;;;;;20.08;12.68;;;;;;;5.88;79.76;102476.34;5048167;28;20358;-63
2023/04/18 06:19:59;;;;;;;20.10;13.15;;;;;;;5.98;79.28;102478.44;5042145;28;20465;-63
2023/04/18 06:22:24;;;;;;;18.75;12.27;;;;;;;6.01;79.53;102481.75;5045559;28;20083;-63
2023/04/18 06:24:49;;;;;;;19.23;13.07;;;;;;;6.07;79.43;102484.97;5041636;28;20032;-63
2023/04/18 06:27:15;;;;;;;19.55;12.88;;;;;;;6.02;78.80;102485.22;5044457;28;20028;-64
2023/04/18 06:29:42;;;;;;;19.15;12.93;;;;;;;6.04;79.52;102478.97;5044306;28;20033;-63
2023/04/18 06:32:07;;;;;;;19.13;12.60;;;;;;;6.05;79.46;102483.28;5045068;28;20029;-63
2023/04/18 06:34:32;;;;;;;19.05;12.77;;;;;;;6.12;79.54;102482.94;5047004;28;20396;-63
2023/04/18 06:36:58;;;;;;;21.70;13.30;;;;;;;6.17;80.01;102492.25;5043940;28;20647;-63
2023/04/18 06:39:23;;;;;;;20.35;13.32;;;;;;;6.28;80.56;102488.94;5046184;28;20053;-63
2023/04/18 06:41:49;;;;;;;19.92;13.10;;;;;;;6.35;79.66;102488.59;5040132;28;20071;-63
2023/04/18 06:44:14;;;;;;;19.63;12.68;;;;;;;6.42;80.18;102479.38;5045120;28;20036;-63
2023/04/18 06:46:40;;;;;;;21.13;12.77;;;;;;;6.46;80.26;102486.13;5042035;28;20037;-63
2023/04/18 06:49:05;;;;;;;18.10;12.93;;;;;;;6.56;79.76;102483.81;5043952;28;20037;-63
2023/04/18 06:51:31;;;;;;;19.20;12.43;;;;;;;6.61;79.26;102483.53;5038914;28;20448;-63
2023/04/18 06:53:56;;;;;;;20.65;12.65;;;;;;;6.63;80.28;102492.19;5044172;28;20554;-64
2023/04/18 06:56:22;;;;;;;18.48;12.55;;;;;;;6.63;80.03;102492.19;5041396;28;20037;-64
2023/04/18 06:58:48;;;;;;;18.63;12.45;;;;;;;6.72;80.62;102494.25;5041201;28;20564;-65
2023/04/18 07:01:14;;;;;;;20.10;12.05;;;;;;;6.75;79.93;102491.41;5043576;28;20112;-65
2023/04/18 07:03:39;;;;;;;20.75;12.88;;;;;;;6.77;79.48;102493.97;5041767;28;20105;-65
2023/04/18 07:06:07;;;;;;;18.10;11.93;;;;;;;6.91;78.40;102501.03;5046887;28;20062;-64
2023/04/18 07:08:33;;;;;;;19.48;12.30;;;;;;;6.78;80.36;102499.16;5041714;28;20025;-64
2023/04/18 07:10:59;;;;;;;19.63;13.65;;;;;;;6.85;79.90;102507.50;5039117;28;20115;-65
2023/04/18 07:13:24;;;;;;;18.48;12.55;;;;;;;6.82;79.81;102502.44;5045778;28;20045;-65
2023/04/18 07:15:49;;;;;;;17.67;12.18;;;;;;;6.84;79.57;102509.31;5042882;28;20037;-65
2023/04/18 07:18:15;;;;;;;20.25;11.77;;;;;;;6.83;80.32;102502.34;5044048;28;20037;-65
2023/04/18 07:20:40;;;;;;;21.20;12.82;;;;;;;6.89;79.79;102508.16;5040066;28;20106;-65
2023/04/18 07:23:05;;;;;;;19.35;12.13;;;;;;;6.84;80.44;102501.41;5046527;28;20037;-65
2023/04/18 07:25:31;;;;;;;18.67;12.55;;;;;;;6.90;80.48;102501.97;5039006;28;20028;-65
2023/04/18 07:27:56;;;;;;;18.92;12.90;;;;;;;6.91;80.39;102511.56;5045641;28;20082;-65
2023/04/18 07:30:21;;;;;;;19.00;12.45;;;;;;;6.97;80.87;102516.47;5044918;28;20061;-65
2023/04/18 07:32:47;;;;;;;18.67;12.32;;;;;;;7.01;80.78;102512.69;5046433;28;20044;-64
2023/04/18 07:35:12;;;;;;;19.38;12.27;;;;;;;7.11;80.17;102519.06;5044203;28;20101;-64
2023/04/18 07:37:38;;;;;;;19.73;12.15;;;;;;;7.20;80.67;102517.63;5042444;28;20048;-64
2023/04/18 07:40:04;;;;;;;18.08;12.40;;;;;;;7.31;80.50;102514.31;5043776;28;20492;-64
2023/04/18 07:42:29;;;;;;;20.40;12.65;;;;;;;7.35;79.92;102521.09;5042076;28;20527;-64
2023/04/18 07:44:56;;;;;;;18.02;11.88;;;;;;;7.49;79.95;102521.97;5044260;28;20057;-64
2023/04/18 07:47:22;;;;;;;18.85;11.85;;;;;;;7.50;79.40;102523.69;5042138;28;20127;-64
2023/04/18 07:49:47;;;;;;;15.60;11.57;;;;;;;7.51;79.07;102525.38;5041291;28;20446;-64
2023/04/18 07:52:12;;;;;;;16.33;12.05;;;;;;;7.54;79.21;102519.88;5043159;28;20032;-64
2023/04/18 07:54:37;;;;;;;17.40;11.40;;;;;;;7.58;79.58;102526.66;5043197;28;21091;-64
2023/04/18 07:57:03;;;;;;;17.95;11.90;;;;;;;7.55;79.82;102524.22;5045408;28;20036;-64
2023/04/18 07:59:28;;;;;;;15.95;10.95;;;;;;;7.70;79.24;102529.47;5039277;28;20535;-64
2023/04/18 08:01:53;;;;;;;18.90;11.27;;;;;;;7.77;78.54;102522.81;5041245;28;20036;-64
2023/04/18 08:04:19;;;;;;;17.35;11.02;;;;;;;7.82;78.83;102528.66;5046520;28;20045;-64
2023/04/18 08:06:44;;;;;;;15.90;11.25;;;;;;;7.90;79.27;102526.34;5047789;28;20036;-64
2023/04/18 08:09:10;;;;;;;16.98;11.18;;;;;;;7.93;78.88;102526.16;5047740;28;20070;-64
2023/04/18 08:11:36;;;;;;;15.57;11.07;;;;;;;7.99;78.71;102531.97;5052361;28;20726;-64
2023/04/18 08:14:01;;;;;;;17.60;11.48;;;;;;;8.05;78.79;102534.19;5052223;28;20032;-64
2023/04/18 08:16:27;;;;;;;17.65;11.35;;;;;;;8.13;78.13;102542.44;5052643;28;20064;-64
2023/04/18 08:18:52;;;;;;;15.88;10.77;;;;;;;8.11;78.59;102540.84;5055019;28;20025;-64
2023/04/18 08:21:18;;;;;;;17.90;10.80;;;;;;;8.14;77.26;102538.03;5054999;28;20059;-64
2023/04/18 08:23:44;;;;;;;15.70;10.95;;;;;;;8.12;78.03;102532.84;5048219;28;20060;-64
2023/04/18 08:26:10;;;;;;;15.52;11.57;;;;;;;8.15;76.93;102551.13;5054878;28;20467;-64
2023/04/18 08:28:35;;;;;;;15.50;11.60;;;;;;;8.12;77.67;102539.91;5055404;28;20124;-64
2023/04/18 08:31:00;;;;;;;17.52;11.35;;;;;;;8.08;78.53;102540.13;5064081;28;20035;-64
2023/04/18 08:33:27;;;;;;;16.98;11.88;;;;;;;8.11;77.17;102541.72;5053631;28;20461;-64
2023/04/18 08:35:52;;;;;;;16.20;11.05;;;;;;;8.10;77.74;102537.38;5054417;28;20029;-64
2023/04/18 08:38:18;;;;;;;16.13;11.27;;;;;;;8.10;78.68;102547.97;5051828;28;20095;-64
2023/04/18 08:40:44;;;;;;;16.17;11.45;;;;;;;8.15;78.24;102540.53;5049709;28;20467;-64
2023/04/18 08:43:12;;;;;;;17.35;11.10;;;;;;;8.16;78.37;102536.97;5052647;28;20029;-65
2023/04/18 08:45:39;;;;;;;14.77;10.88;;;;;;;8.19;77.96;102526.19;5049965;28;20078;-64
2023/04/18 08:48:06;;;;;;;16.38;11.60;;;;;;;8.31;79.06;102542.16;5049480;28;20029;-64
2023/04/18 08:50:32;;;;;;;17.90;11.85;;;;;;;8.37;78.74;102528.53;5050448;28;20391;-64
2023/04/18 08:52:59;;;;;;;15.73;11.40;;;;;;;8.38;78.16;102529.38;5048069;28;20109;-63
2023/04/18 08:55:25;;;;;;;15.05;11.18;;;;;;;8.40;78.98;102536.25;5052187;28;20399;-67
2023/04/18 08:57:53;;;;;;;15.93;11.80;;;;;;;8.48;78.17;102525.13;5052380;28;20041;-64
2023/04/18 09:00:19;;;;;;;14.65;11.25;;;;;;;8.60;78.69;102523.47;5051635;28;20433;-64
2023/04/18 09:02:45;;;;;;;16.48;11.23;;;;;;;8.68;77.75;102521.13;5049210;28;20025;-64
2023/04/18 09:05:20;;;;;;;15.27;11.18;;;;;;;8.87;78.52;102517.19;5046293;28;20047;-64
2023/04/18 09:07:46;;;;;;;16.42;11.18;;;;;;;9.11;76.47;102519.03;5047144;28;20033;-64
2023/04/18 09:10:12;;;;;;;14.82;11.05;;;;;;;9.14;76.49;102516.19;5050945;28;20040;-64
2023/04/18 09:12:49;;;;;;;14.45;10.95;;;;;;;9.31;77.03;102511.50;5051963;28;20029;-63
2023/04/18 09:15:17;;;;;;;16.38;12.00;;;;;;;9.59;76.75;102509.44;5044642;28;20025;-64
2023/04/18 09:17:48;;;;;;;15.13;11.45;;;;;;;9.85;75.48;102509.28;5053721;28;20043;-64
2023/04/18 09:20:25;;;;;;;14.98;11.38;;;;;;;9.97;72.73;102508.38;5052679;28;20534;-64
2023/04/18 09:22:53;;;;;;;15.23;11.63;;;;;;;9.94;72.05;102513.91;5049048;28;20029;-59
2023/04/18 09:25:33;;;;;;;17.05;11.30;;;;;;;9.86;71.39;102511.00;5053751;28;20115;-60
2023/04/18 09:28:00;;;;;;;15.63;11.20;;;;;;;9.71;70.64;102510.34;5050769;28;20061;-59
2023/04/18 09:30:38;;;;;;;15.88;11.27;;;;;;;9.66;71.18;102513.31;5052628;28;20086;-59
2023/04/18 09:33:06;;;;;;;15.25;10.70;;;;;;;9.65;71.11;102517.78;5050265;28;20681;-60
2023/04/18 09:35:32;;;;;;;14.98;10.45;;;;;;;9.64;71.08;102517.91;5053655;28;20087;-59
2023/04/18 09:37:57;;;;;;;15.90;10.50;;;;;;;9.69;70.66;102505.16;5046013;28;20032;-59
2023/04/18 09:40:22;;;;;;;14.57;10.82;;;;;;;9.74;70.76;102513.59;5052570;28;20028;-62
2023/04/18 09:42:51;;;;;;;15.07;10.20;;;;;;;9.72;69.56;102512.03;5052238;28;20023;-61
2023/04/18 09:45:16;;;;;;;15.68;10.75;;;;;;;9.69;70.95;102502.50;5052382;28;20024;-62
2023/04/18 09:47:41;;;;;;;15.25;9.82;;;;;;;9.72;71.34;102504.91;5050920;28;20110;-64
2023/04/18 09:50:10;;;;;;;15.85;10.05;;;;;;;9.72;70.76;102510.22;5053007;28;20033;-65
2023/04/18 09:52:37;;;;;;;15.43;10.43;;;;;;;9.88;71.74;102503.78;5045506;28;20113;-65
2023/04/18 09:55:05;;;;;;;14.07;10.20;;;;;;;10.11;70.82;102494.06;5048167;28;20465;-66
2023/04/18 09:57:32;;;;;;;13.68;9.75;;;;;;;10.29;69.40;102497.13;5050704;28;20377;-65
2023/04/18 10:00:09;;;;;;;13.13;9.63;;;;;;;10.53;67.93;102504.16;5055573;28;20032;-65
2023/04/18 10:02:46;;;;;;;14.10;9.38;;;;;;;10.54;67.23;102487.28;5047806;28;20154;-65
2023/04/18 10:05:13;;;;;;;13.13;9.07;;;;;;;10.43;66.62;102492.56;5045767;28;20033;-64
2023/04/18 10:07:40;;;;;;;11.88;8.93;;;;;;;10.32;66.67;102488.91;5051657;28;20672;-67
2023/04/18 10:10:06;;;;;;;11.80;8.52;;;;;;;10.22;66.58;102501.22;5038582;28;20049;-68
2023/04/18 10:12:32;;;;;;;10.77;8.57;;;;;;;10.05;66.55;102498.03;5049268;28;20064;-68
2023/04/18 10:14:58;;;;;;;11.27;8.32;;;;;;;9.99;67.41;102509.09;5052228;28;20401;-68
2023/04/18 10:17:26;;;;;;;12.05;8.80;;;;;;;9.95;67.87;102491.75;5052343;28;20104;-68
2023/04/18 10:20:09;;;;;;;10.65;8.38;;;;;;;9.99;68.03;102505.59;5053046;28;20466;-68
2023/04/18 10:22:35;;;;;;;12.35;8.13;;;;;;;9.93;67.90;102506.91;5052058;28;20025;-68
2023/04/18 10:25:01;;;;;;;9.90;7.63;;;;;;;9.95;67.58;102510.28;5052153;28;20036;-68
2023/04/18 10:28:05;;;;;;;11.93;7.72;;;;;;;9.93;69.31;102507.75;5048723;28;20029;-66
2023/04/18 10:30:51;;;;;;;9.73;7.18;;;;;;;10.00;68.32;102499.34;4990240;28;20489;-66
2023/04/18 10:33:34;;;;;;;9.60;6.95;;;;;;;9.97;67.51;102508.38;4990517;28;20122;-66
2023/04/18 10:36:04;;;;;;;9.10;6.50;;;;;;;9.88;67.54;102503.78;5032204;28;20049;-66
2023/04/18 10:38:31;;;;;;;8.82;6.60;;;;;;;9.87;67.14;102507.38;5052588;28;20369;-66
2023/04/18 10:41:14;;;;;;;8.77;6.60;;;;;;;9.98;68.73;102510.06;5048453;28;20017;-66
2023/04/18 10:44:07;;;;;;;9.85;7.13;;;;;;;10.16;67.00;102512.28;5051712;28;20764;-66
2023/04/18 10:46:51;;;;;;;10.45;7.18;;;;;;;10.15;64.37;102505.28;5046880;28;20025;-65
2023/04/18 10:49:24;;;;;;;8.68;6.90;;;;;;;10.09;64.84;102506.59;5049792;28;20120;-66
2023/04/18 10:51:50;;;;;;;;;;;;;;;10.21;67.42;102499.50;5051809;28;20120;-66
2023/04/18 10:54:31;;;;;;;10.32;7.30;;;;;;;10.23;67.06;102490.47;5051270;28;19916;-66
2023/04/18 10:56:58;;;;;;;9.43;7.30;;;;;;;10.43;66.29;102497.88;5047466;28;20043;-65
2023/04/18 10:59:25;;;;;;;9.80;7.47;;;;;;;10.63;66.90;102499.81;5047841;28;20108;-66
2023/04/18 11:02:20;;;;;;;9.63;7.25;;;;;;;10.76;67.39;102504.16;5046257;28;20029;-65
2023/04/18 11:04:50;;;;;;;9.73;7.65;;;;;;;10.75;65.81;102502.44;5037838;28;20431;-65
2023/04/18 11:07:15;;;;;;;9.38;7.32;;;;;;;10.78;65.65;102510.19;5045908;28;20032;-65
2023/04/18 11:09:49;;;;;;;17.05;8.02;;;;;;;10.71;65.12;102498.38;5041456;28;20118;-65
2023/04/18 11:12:15;;;;;;;8.80;7.22;;;;;;;10.62;66.49;102513.22;5041211;28;20713;-65
2023/04/18 11:14:48;;;;;;;10.52;7.90;;;;;;;10.54;66.42;102500.53;5040841;28;20047;-65
2023/04/18 11:17:24;;;;;;;11.77;7.82;;;;;;;10.45;67.44;102507.41;5042512;28;20036;-66